Time;durP1;ratioP1;P1;durP2;ratioP2;P2;SDS_P1;SDS_P2;PMS_P1;PMS_P2;Temp;Humidity;BMP_temperature;BMP_pressure;BME280_temperature;BME280_humidity;BME280_pressure;Samples;Min_cycle;Max_cycle;Signal;HPM_P1;HPM_P2
2022/10/16 00:01:08;;;;;;;2.63;2.00;;;;;;;15.47;100.00;155335.44;5025867;28;20448;-89
2022/10/16 00:03:36;;;;;;;7.97;2.73;;;;;;;15.46;100.00;155332.81;5027340;28;20513;-89
2022/10/16 00:06:03;;;;;;;4.40;2.17;;;;;;;15.46;100.00;155331.56;5033193;28;20440;-89
2022/10/16 00:08:31;;;;;;;3.30;2.30;;;;;;;15.42;100.00;155322.41;5030145;28;20462;-89
2022/10/16 00:11:01;;;;;;;2.90;2.00;;;;;;;15.40;100.00;155317.22;5024950;28;20563;-89
2022/10/16 00:13:29;;;;;;;2.90;2.47;;;;;;;15.39;100.00;155314.59;5032239;28;20538;-89
2022/10/16 00:15:56;;;;;;;2.50;2.10;;;;;;;15.41;100.00;155318.53;5013713;28;20421;-89
2022/10/16 00:18:23;;;;;;;2.10;1.80;;;;;;;15.39;100.00;155314.59;5021516;28;20539;-89
2022/10/16 00:20:52;;;;;;;3.33;2.17;;;;;;;15.37;100.00;155309.41;5032876;28;21005;-89
2022/10/16 00:23:18;;;;;;;4.67;2.20;;;;;;;15.35;100.00;155302.91;5031139;28;20534;-89
2022/10/16 00:25:45;;;;;;;2.93;1.90;;;;;;;15.33;100.00;155298.97;5031333;28;20444;-90
2022/10/16 00:28:12;;;;;;;2.90;2.03;;;;;;;15.31;100.00;155292.50;5031290;28;20483;-90
2022/10/16 00:30:39;;;;;;;3.20;1.80;;;;;;;15.27;100.00;155283.44;5031813;28;20440;-90
2022/10/16 00:33:05;;;;;;;2.90;2.27;;;;;;;15.27;100.00;155283.44;5032764;28;20931;-89
2022/10/16 00:35:32;;;;;;;2.83;2.20;;;;;;;15.26;100.00;155280.81;5030113;28;20798;-89
2022/10/16 00:38:00;;;;;;;3.07;2.67;;;;;;;15.24;100.00;155275.63;5031876;28;20482;-89
2022/10/16 00:40:28;;;;;;;3.30;2.33;;;;;;;15.22;100.00;155271.69;5032130;28;20466;-90
2022/10/16 00:42:54;;;;;;;2.67;2.10;;;;;;;15.19;100.00;155262.63;5031691;28;20986;-89
2022/10/16 00:45:21;;;;;;;2.93;2.20;;;;;;;15.20;100.00;155265.19;5032740;28;20495;-89
2022/10/16 00:47:49;;;;;;;7.30;2.73;;;;;;;15.17;100.00;155257.41;5032628;28;20491;-89
2022/10/16 00:50:20;;;;;;;3.27;2.50;;;;;;;15.16;100.00;155256.13;5031605;28;20462;-90
2022/10/16 00:52:49;;;;;;;2.70;2.30;;;;;;;15.12;100.00;155244.41;5030915;28;20451;-90
2022/10/16 00:55:17;;;;;;;3.40;2.67;;;;;;;15.10;100.00;155239.22;5024681;28;20456;-89
2022/10/16 00:57:44;;;;;;;2.80;2.60;;;;;;;15.09;100.00;155237.91;5019513;28;20804;-89
2022/10/16 01:00:13;;;;;;;2.60;2.40;;;;;;;15.07;100.00;155231.41;5012144;28;20441;-89
2022/10/16 01:02:40;;;;;;;3.33;2.70;;;;;;;15.05;100.00;155227.53;5026867;28;20812;-89
2022/10/16 01:05:07;;;;;;;3.63;2.37;;;;;;;15.05;100.00;155226.22;5034482;28;20469;-89
2022/10/16 01:07:44;;;;;;;3.20;2.50;;;;;;;15.05;100.00;155226.22;5036842;28;20485;-89
2022/10/16 01:10:21;;;;;;;3.43;3.00;;;;;;;15.04;100.00;155223.63;5027392;28;20461;-89
2022/10/16 01:12:51;;;;;;;5.37;2.60;;;;;;;15.01;100.00;155215.88;5026827;28;20464;-90
2022/10/16 01:15:22;;;;;;;2.70;2.50;;;;;;;15.00;100.00;155213.25;5035101;28;20486;-89
2022/10/16 01:17:53;;;;;;;3.77;3.13;;;;;;;15.00;100.00;155213.25;5035041;28;20447;-89
2022/10/16 01:20:26;;;;;;;3.23;2.90;;;;;;;14.95;100.00;155200.25;5034313;28;20455;-90
2022/10/16 01:23:03;;;;;;;3.13;2.73;;;;;;;14.94;100.00;155197.66;5034839;28;20497;-89
2022/10/16 01:25:41;;;;;;;4.97;2.97;;;;;;;14.90;100.00;155188.56;5024787;28;20539;-89
2022/10/16 01:28:10;;;;;;;6.63;4.47;;;;;;;14.92;100.00;155192.47;5020458;28;20499;-90
2022/10/16 01:30:37;;;;;;;3.27;2.97;;;;;;;14.93;100.00;155195.06;5042130;28;20452;-89
2022/10/16 01:33:09;;;;;;;4.23;3.40;;;;;;;14.91;100.00;155191.16;5035270;28;20474;-89
2022/10/16 01:35:37;;;;;;;4.00;3.10;;;;;;;14.93;100.00;155195.06;5035735;28;20436;-90
2022/10/16 01:38:06;;;;;;;5.60;2.67;;;;;;;14.94;100.00;155197.66;5026476;28;20454;-89
2022/10/16 01:40:35;;;;;;;6.30;2.33;;;;;;;14.94;100.00;155197.66;5031917;28;20538;-90
2022/10/16 01:43:04;;;;;;;6.63;3.00;;;;;;;14.94;100.00;155198.94;5034426;28;20582;-89
2022/10/16 01:45:33;;;;;;;3.40;2.97;;;;;;;14.97;100.00;155205.44;5034273;28;20467;-89
2022/10/16 01:48:03;;;;;;;4.53;2.70;;;;;;;14.94;100.00;155197.66;5035953;28;20479;-89
2022/10/16 01:50:32;;;;;;;7.23;2.17;;;;;;;14.94;100.00;155197.66;5021247;28;20871;-89
2022/10/16 01:52:59;;;;;;;3.10;2.80;;;;;;;14.94;100.00;155197.66;5037066;28;20950;-89
2022/10/16 01:55:29;;;;;;;3.30;2.90;;;;;;;14.96;100.00;155204.13;5036007;28;20424;-89
2022/10/16 01:57:56;;;;;;;3.40;2.47;;;;;;;14.96;100.00;155202.81;5034408;28;20455;-89
2022/10/16 02:00:23;;;;;;;5.27;3.57;;;;;;;14.97;100.00;155206.75;5032795;28;20431;-89
2022/10/16 02:02:55;;;;;;;3.73;2.63;;;;;;;14.96;100.00;155202.81;5024102;28;20462;-89
2022/10/16 02:05:25;;;;;;;5.83;3.10;;;;;;;14.97;100.00;155205.44;5028353;28;20971;-89
2022/10/16 02:07:52;;;;;;;3.03;2.70;;;;;;;14.99;100.00;155210.63;5035014;28;20478;-89
2022/10/16 02:10:19;;;;;;;3.60;2.80;;;;;;;14.99;100.00;155210.63;5034203;28;20886;-90
2022/10/16 02:12:50;;;;;;;3.83;3.20;;;;;;;15.01;100.00;155215.88;5023520;28;20451;-89
2022/10/16 02:15:17;;;;;;;7.33;3.00;;;;;;;15.00;100.00;155213.25;5033855;28;20517;-90
2022/10/16 02:17:44;;;;;;;3.40;3.10;;;;;;;15.02;100.00;155218.44;5032933;28;20969;-89
2022/10/16 02:20:12;;;;;;;4.70;2.70;;;;;;;15.02;100.00;155219.75;5017880;28;20440;-89
2022/10/16 02:22:41;;;;;;;6.33;2.97;;;;;;;15.03;100.00;155221.03;5024912;28;20459;-89
2022/10/16 02:25:11;;;;;;;2.80;2.50;;;;;;;15.03;100.00;155222.34;5025845;28;20452;-90
2022/10/16 02:27:44;;;;;;;4.30;2.80;;;;;;;15.02;100.00;155218.44;5024318;28;20479;-89
2022/10/16 02:30:15;;;;;;;6.10;2.90;;;;;;;15.03;100.00;155221.03;5030997;28;20439;-89
2022/10/16 02:32:44;;;;;;;4.00;2.67;;;;;;;15.01;100.00;155217.13;5015488;28;20797;-89
2022/10/16 02:35:12;;;;;;;4.73;3.00;;;;;;;15.00;100.00;155213.25;5035247;28;20527;-89
2022/10/16 02:37:39;;;;;;;4.40;3.27;;;;;;;14.99;100.00;155210.63;5027439;28;20918;-89
2022/10/16 02:40:08;;;;;;;3.47;3.10;;;;;;;15.01;100.00;155215.88;5028896;28;20456;-89
2022/10/16 02:42:36;;;;;;;3.93;2.77;;;;;;;14.99;100.00;155210.63;5033023;28;20946;-89
2022/10/16 02:45:03;;;;;;;3.47;2.70;;;;;;;15.01;100.00;155215.88;5033882;28;20456;-89
2022/10/16 02:47:30;;;;;;;2.63;2.43;;;;;;;15.02;100.00;155219.75;5033507;28;20970;-89
2022/10/16 02:49:57;;;;;;;2.50;2.30;;;;;;;15.01;100.00;155217.13;5034484;28;20459;-89
2022/10/16 02:52:25;;;;;;;3.70;2.77;;;;;;;15.01;100.00;155215.88;5028136;28;20947;-89
2022/10/16 02:54:51;;;;;;;4.40;2.57;;;;;;;15.00;100.00;155214.56;5033539;28;20444;-89
2022/10/16 02:57:18;;;;;;;5.43;2.47;;;;;;;14.99;100.00;155211.94;5033363;28;20446;-89
2022/10/16 02:59:45;;;;;;;3.30;2.63;;;;;;;14.95;100.00;155200.25;5022885;28;20536;-89
2022/10/16 03:02:12;;;;;;;6.00;2.33;;;;;;;14.95;100.00;155200.25;5024297;28;20783;-89
2022/10/16 03:04:38;;;;;;;5.03;2.70;;;;;;;14.92;100.00;155192.47;5027492;28;20444;-89
2022/10/16 03:07:05;;;;;;;3.20;2.67;;;;;;;14.90;100.00;155188.56;5045451;28;20451;-89
2022/10/16 03:09:33;;;;;;;3.23;2.93;;;;;;;14.89;100.00;155185.97;5032033;28;20810;-89
2022/10/16 03:12:00;;;;;;;4.00;2.83;;;;;;;14.87;100.00;155180.78;5033376;28;20455;-90
2022/10/16 03:14:27;;;;;;;2.60;2.40;;;;;;;14.87;100.00;155179.47;5034228;28;20454;-89
2022/10/16 03:16:53;;;;;;;3.63;2.57;;;;;;;14.86;100.00;155176.84;5016055;28;20456;-88
2022/10/16 03:19:20;;;;;;;4.83;2.30;;;;;;;14.85;100.00;155174.28;5033185;28;20474;-89
2022/10/16 03:21:47;;;;;;;3.20;2.30;;;;;;;14.86;100.00;155176.84;5021122;28;20542;-89
2022/10/16 03:24:13;;;;;;;3.30;2.43;;;;;;;14.85;100.00;155174.28;5034161;28;20462;-89
2022/10/16 03:26:42;;;;;;;3.00;2.30;;;;;;;14.83;100.00;155169.06;5032340;28;20436;-89
2022/10/16 03:29:08;;;;;;;2.50;2.20;;;;;;;14.82;100.00;155166.47;5017803;28;20483;-88
2022/10/16 03:31:35;;;;;;;3.40;2.20;;;;;;;14.81;100.00;155163.88;5033768;28;20478;-89
2022/10/16 03:34:02;;;;;;;2.30;1.97;;;;;;;14.79;100.00;155158.69;5023309;28;20461;-89
2022/10/16 03:36:28;;;;;;;2.30;2.07;;;;;;;14.80;100.00;155162.56;5031386;28;20462;-89
2022/10/16 03:38:55;;;;;;;3.10;2.00;;;;;;;14.78;100.00;155157.38;5032622;28;20456;-88
2022/10/16 03:41:22;;;;;;;3.43;2.07;;;;;;;14.79;100.00;155158.69;5033656;28;20454;-89
2022/10/16 03:43:50;;;;;;;1.90;1.60;;;;;;;14.79;100.00;155158.69;5025416;28;21063;-88
2022/10/16 03:46:16;;;;;;;2.10;1.90;;;;;;;14.78;100.00;155156.06;5027096;28;20459;-89
2022/10/16 03:48:43;;;;;;;3.40;1.87;;;;;;;14.79;100.00;155158.69;5025420;28;20562;-89
2022/10/16 03:51:10;;;;;;;2.57;1.40;;;;;;;14.79;100.00;155158.69;5032707;28;20490;-89
2022/10/16 03:53:37;;;;;;;2.97;1.90;;;;;;;14.82;100.00;155166.47;5032706;28;20451;-89
2022/10/16 03:56:03;;;;;;;2.73;1.40;;;;;;;14.82;100.00;155166.47;5031655;28;20483;-89
2022/10/16 03:58:30;;;;;;;3.20;1.57;;;;;;;14.83;100.00;155169.06;5032818;28;20456;-89
2022/10/16 04:00:58;;;;;;;2.13;1.67;;;;;;;14.81;100.00;155163.88;5017618;28;20970;-88
2022/10/16 04:03:25;;;;;;;2.47;1.80;;;;;;;14.82;100.00;155167.78;5032889;28;20538;-88
2022/10/16 04:05:51;;;;;;;1.80;1.60;;;;;;;14.83;100.00;155169.06;5032040;28;20439;-88
2022/10/16 04:08:18;;;;;;;2.77;1.97;;;;;;;14.82;100.00;155166.47;5019948;28;20469;-89
2022/10/16 04:10:45;;;;;;;2.33;1.90;;;;;;;14.81;100.00;155165.19;5021170;28;20554;-88
2022/10/16 04:13:11;;;;;;;3.60;1.80;;;;;;;14.82;100.00;155166.47;5025656;28;20459;-88
2022/10/16 04:15:38;;;;;;;4.47;1.90;;;;;;;14.81;100.00;155165.19;5033546;28;20443;-88
2022/10/16 04:18:06;;;;;;;1.70;1.50;;;;;;;14.81;100.00;155163.88;5033763;28;20482;-90
2022/10/16 04:20:33;;;;;;;3.40;1.70;;;;;;;14.80;100.00;155161.31;5025068;28;20451;-90
2022/10/16 04:23:00;;;;;;;10.83;1.93;;;;;;;14.79;100.00;155158.69;5031681;28;20822;-90
2022/10/16 04:25:27;;;;;;;5.07;2.07;;;;;;;14.78;100.00;155157.38;5033474;28;20436;-90
2022/10/16 04:27:54;;;;;;;13.87;2.27;;;;;;;14.77;100.00;155153.50;5032110;28;20962;-90
2022/10/16 04:30:21;;;;;;;2.10;1.90;;;;;;;14.77;100.00;155154.81;5022670;28;20505;-90
2022/10/16 04:32:49;;;;;;;3.60;2.10;;;;;;;14.77;100.00;155153.50;5014893;28;20502;-90
2022/10/16 04:35:17;;;;;;;4.33;1.80;;;;;;;14.75;100.00;155149.56;5031072;28;20448;-90
2022/10/16 04:37:44;;;;;;;1.90;1.70;;;;;;;14.74;100.00;155147.00;5033499;28;20431;-91
2022/10/16 04:40:11;;;;;;;2.70;2.10;;;;;;;14.74;100.00;155147.00;5032703;28;20456;-90
2022/10/16 04:42:37;;;;;;;2.10;1.90;;;;;;;14.75;100.00;155148.25;5029982;28;20454;-90
2022/10/16 04:45:06;;;;;;;3.77;2.20;;;;;;;14.74;100.00;155145.69;5024330;28;20472;-90
2022/10/16 04:47:32;;;;;;;2.90;2.10;;;;;;;14.73;100.00;155144.38;5026522;28;20525;-90
2022/10/16 04:50:00;;;;;;;3.30;2.33;;;;;;;14.74;100.00;155145.69;5031460;28;20623;-88
2022/10/16 04:52:28;;;;;;;3.30;2.10;;;;;;;14.73;100.00;155143.09;5033301;28;20555;-90
2022/10/16 04:55:00;;;;;;;3.10;2.17;;;;;;;14.75;100.00;155148.25;5023975;28;20518;-90
2022/10/16 04:57:26;;;;;;;3.33;2.40;;;;;;;14.73;100.00;155144.38;5031272;28;20455;-90
2022/10/16 04:59:53;;;;;;;2.90;1.70;;;;;;;14.72;100.00;155140.50;5031527;28;20478;-90
2022/10/16 05:02:20;;;;;;;2.73;2.53;;;;;;;14.70;100.00;155136.59;5015126;28;20474;-90
2022/10/16 05:04:47;;;;;;;2.40;2.20;;;;;;;14.69;100.00;155134.03;5015394;28;20525;-90
2022/10/16 05:07:13;;;;;;;3.30;2.00;;;;;;;14.72;100.00;155140.50;5031385;28;20514;-90
2022/10/16 05:09:41;;;;;;;2.53;2.00;;;;;;;14.73;100.00;155143.09;5029979;28;20480;-90
2022/10/16 05:12:08;;;;;;;2.30;2.00;;;;;;;14.71;100.00;155139.22;5032571;28;20457;-90
2022/10/16 05:14:35;;;;;;;5.70;2.47;;;;;;;14.69;100.00;155134.03;5031768;28;20522;-91
2022/10/16 05:17:01;;;;;;;2.90;2.30;;;;;;;14.67;100.00;155127.53;5031640;28;20554;-90
2022/10/16 05:19:28;;;;;;;3.13;2.07;;;;;;;14.67;100.00;155127.53;5031615;28;20435;-90
2022/10/16 05:21:55;;;;;;;3.80;2.30;;;;;;;14.66;100.00;155126.22;5031225;28;20839;-91
2022/10/16 05:24:22;;;;;;;2.83;2.30;;;;;;;14.67;100.00;155127.53;5028658;28;20444;-90
2022/10/16 05:26:50;;;;;;;2.70;1.80;;;;;;;14.65;100.00;155123.59;5030308;28;20947;-90
2022/10/16 05:29:17;;;;;;;2.30;1.83;;;;;;;14.65;100.00;155123.59;5031445;28;20475;-91
2022/10/16 05:31:44;;;;;;;3.93;1.90;;;;;;;14.67;100.00;155127.53;5031279;28;20466;-90
2022/10/16 05:34:10;;;;;;;2.93;1.90;;;;;;;14.67;100.00;155127.53;5022030;28;20507;-91
2022/10/16 05:36:37;;;;;;;2.77;2.00;;;;;;;14.64;100.00;155122.28;5027765;28;21120;-91
2022/10/16 05:39:04;;;;;;;3.30;1.73;;;;;;;14.64;100.00;155121.00;5011151;28;20539;-90
2022/10/16 05:41:31;;;;;;;2.60;1.77;;;;;;;14.62;100.00;155117.09;5024015;28;20440;-90
2022/10/16 05:43:59;;;;;;;2.33;2.13;;;;;;;14.62;100.00;155117.09;5032088;28;20941;-91
2022/10/16 05:46:26;;;;;;;5.30;2.50;;;;;;;14.60;100.00;155110.63;5032762;28;20454;-91
2022/10/16 05:48:53;;;;;;;4.30;2.20;;;;;;;14.57;100.00;155104.13;5032743;28;20558;-91
2022/10/16 05:51:20;;;;;;;2.30;2.10;;;;;;;14.56;100.00;155100.25;5023032;28;20441;-90
2022/10/16 05:53:46;;;;;;;3.83;2.10;;;;;;;14.55;100.00;155098.94;5028354;28;20455;-76
2022/10/16 05:56:13;;;;;;;3.50;2.10;;;;;;;14.56;100.00;155100.25;5013906;28;20452;-77
2022/10/16 05:58:41;;;;;;;2.77;2.10;;;;;;;14.57;100.00;155104.13;5029931;28;20510;-76
2022/10/16 06:01:13;;;;;;;3.93;2.17;;;;;;;14.61;100.00;155113.25;5028166;28;20499;-76
2022/10/16 06:03:40;;;;;;;3.00;1.73;;;;;;;14.64;100.00;155121.00;5032275;28;20440;-76
2022/10/16 06:06:11;;;;;;;2.30;1.83;;;;;;;14.67;100.00;155127.53;5014666;28;20448;-76
2022/10/16 06:08:37;;;;;;;2.70;2.20;;;;;;;14.69;100.00;155132.72;5014730;28;20675;-76
2022/10/16 06:11:05;;;;;;;1.97;1.73;;;;;;;14.71;100.00;155137.91;5029354;28;20954;-76
2022/10/16 06:13:32;;;;;;;3.10;1.90;;;;;;;14.74;100.00;155145.69;5029118;28;20506;-76
2022/10/16 06:16:00;;;;;;;2.40;2.17;;;;;;;14.76;100.00;155150.88;5030363;28;20808;-77
2022/10/16 06:18:29;;;;;;;3.10;2.13;;;;;;;14.78;100.00;155157.38;5027302;28;20456;-76
2022/10/16 06:20:56;;;;;;;4.10;1.80;;;;;;;14.81;100.00;155163.88;5031480;28;20451;-76
2022/10/16 06:23:23;;;;;;;2.90;2.00;;;;;;;14.94;100.00;155197.66;5030554;28;20444;-76
2022/10/16 06:25:50;;;;;;;3.43;1.80;;;;;;;15.03;100.00;155222.34;5031036;28;20448;-77
2022/10/16 06:28:17;;;;;;;2.73;2.53;;;;;;;15.05;100.00;155227.53;5029803;28;20463;-76
2022/10/16 06:30:44;;;;;;;2.30;1.80;;;;;;;15.06;100.00;155228.84;5029968;28;20462;-77
2022/10/16 06:33:11;;;;;;;4.80;2.27;;;;;;;15.05;100.00;155227.53;5030398;28;20466;-76
2022/10/16 06:35:39;;;;;;;2.70;2.17;;;;;;;15.05;100.00;155226.22;5028980;28;20668;-76
2022/10/16 06:38:05;;;;;;;2.57;2.37;;;;;;;15.07;100.00;155232.72;5029788;28;20541;-77
2022/10/16 06:40:32;;;;;;;4.13;2.00;;;;;;;15.20;100.00;155265.19;5028898;28;20797;-76
2022/10/16 06:42:59;;;;;;;2.83;1.90;;;;;;;15.31;100.00;155292.50;5031382;28;20475;-76
2022/10/16 06:45:26;;;;;;;2.87;2.00;;;;;;;15.42;100.00;155322.41;5029107;28;20452;-77
2022/10/16 06:47:53;;;;;;;3.00;1.80;;;;;;;15.48;100.00;155338.06;5029907;28;20771;-77
2022/10/16 06:50:19;;;;;;;6.20;2.27;;;;;;;15.55;100.00;155354.94;5024945;28;20874;-77
2022/10/16 06:52:47;;;;;;;2.43;1.70;;;;;;;15.66;100.00;155384.84;5028895;28;20939;-76
2022/10/16 06:55:15;;;;;;;2.43;1.63;;;;;;;15.86;100.00;155435.50;5028381;28;20444;-77
2022/10/16 06:57:41;;;;;;;3.60;2.10;;;;;;;15.91;100.00;155448.56;5033006;28;20463;-77
2022/10/16 07:00:09;;;;;;;2.40;2.20;;;;;;;15.87;100.00;155438.13;5031932;28;20524;-76
2022/10/16 07:02:35;;;;;;;4.70;1.90;;;;;;;15.83;100.00;155427.75;5030244;28;20455;-77
2022/10/16 07:05:02;;;;;;;2.87;2.20;;;;;;;15.79;100.00;155418.63;5027349;28;20458;-77
2022/10/16 07:07:29;;;;;;;4.00;2.00;;;;;;;15.75;100.00;155406.97;5028031;28;20490;-76
2022/10/16 07:09:57;;;;;;;2.37;1.87;;;;;;;15.70;100.00;155393.97;5029856;28;21024;-77
2022/10/16 07:12:23;;;;;;;8.20;2.00;;;;;;;15.67;100.00;155386.16;5031796;28;20550;-77
2022/10/16 07:14:52;;;;;;;3.20;2.10;;;;;;;15.67;100.00;155387.41;5030174;28;20439;-77
2022/10/16 07:17:18;;;;;;;3.77;2.20;;;;;;;15.68;100.00;155390.03;5019678;28;20994;-77
2022/10/16 07:19:46;;;;;;;2.10;1.73;;;;;;;15.69;100.00;155391.34;5031425;28;20428;-77
2022/10/16 07:22:12;;;;;;;4.87;2.33;;;;;;;15.72;100.00;155400.47;5029983;28;20443;-77
2022/10/16 07:24:39;;;;;;;4.70;2.33;;;;;;;15.71;100.00;155397.84;5026846;28;20491;-77
2022/10/16 07:27:07;;;;;;;3.40;2.20;;;;;;;15.71;100.00;155397.84;5029483;28;20484;-76
2022/10/16 07:29:34;;;;;;;4.57;2.30;;;;;;;15.71;100.00;155397.84;5029300;28;20522;-77
2022/10/16 07:32:00;;;;;;;2.93;2.40;;;;;;;15.71;100.00;155397.84;5029145;28;20456;-77
2022/10/16 07:34:27;;;;;;;2.43;2.20;;;;;;;15.69;100.00;155392.66;5030874;28;20989;-77
2022/10/16 07:36:54;;;;;;;4.60;2.73;;;;;;;15.70;100.00;155395.22;5025724;28;20471;-77
2022/10/16 07:39:21;;;;;;;2.50;2.27;;;;;;;15.69;100.00;155392.66;5026430;28;20452;-76
2022/10/16 07:41:47;;;;;;;2.40;2.03;;;;;;;15.66;100.00;155384.84;5025414;28;20448;-76
2022/10/16 07:44:16;;;;;;;3.93;2.33;;;;;;;15.67;100.00;155387.41;5021950;28;20471;-77
2022/10/16 07:46:43;;;;;;;5.10;2.30;;;;;;;15.71;100.00;155396.53;5014937;28;20459;-91
2022/10/16 07:49:10;;;;;;;2.77;2.17;;;;;;;15.72;100.00;155400.47;5037810;28;20486;-90
2022/10/16 07:51:38;;;;;;;3.43;2.50;;;;;;;15.75;100.00;155406.97;5032442;28;20452;-90
2022/10/16 07:54:04;;;;;;;2.30;2.00;;;;;;;15.76;100.00;155410.84;5032297;28;20479;-90
2022/10/16 07:56:32;;;;;;;3.30;2.07;;;;;;;15.79;100.00;155417.34;5032542;28;20432;-90
2022/10/16 07:58:59;;;;;;;3.03;1.80;;;;;;;15.80;100.00;155421.25;5033279;28;20946;-90
2022/10/16 08:01:27;;;;;;;6.30;2.90;;;;;;;15.82;100.00;155426.44;5032263;28;20450;-90
2022/10/16 08:03:54;;;;;;;3.73;2.27;;;;;;;15.84;100.00;155431.63;5031119;28;20466;-90
2022/10/16 08:06:22;;;;;;;4.80;2.20;;;;;;;15.89;100.00;155443.31;5031899;28;20795;-90
2022/10/16 08:08:48;;;;;;;2.03;1.77;;;;;;;15.93;100.00;155452.44;5012852;28;20796;-90
2022/10/16 08:11:15;;;;;;;3.93;2.10;;;;;;;15.95;100.00;155457.63;5013695;28;20436;-90
2022/10/16 08:13:42;;;;;;;2.40;2.20;;;;;;;15.98;100.00;155465.44;5018337;28;20448;-89
2022/10/16 08:16:09;;;;;;;4.83;2.40;;;;;;;16.03;100.00;155478.44;5022703;28;21338;-90
2022/10/16 08:18:39;;;;;;;2.93;2.63;;;;;;;16.07;100.00;155488.88;5030869;28;20561;-90
2022/10/16 08:21:07;;;;;;;3.97;1.77;;;;;;;16.14;100.00;155507.06;5035216;28;20459;-89
2022/10/16 08:23:34;;;;;;;2.00;1.67;;;;;;;16.23;100.00;155530.47;5032355;28;20447;-90
2022/10/16 08:26:04;;;;;;;2.80;2.40;;;;;;;16.33;100.00;155556.47;5031190;28;20546;-90
2022/10/16 08:28:31;;;;;;;2.20;1.90;;;;;;;16.47;100.00;155592.88;5035718;28;20448;-90
2022/10/16 08:30:57;;;;;;;2.60;2.20;;;;;;;16.60;100.00;155625.47;5033654;28;20562;-90
2022/10/16 08:33:24;;;;;;;2.47;2.10;;;;;;;16.72;100.00;155657.97;5026263;28;20942;-90
2022/10/16 08:35:53;;;;;;;2.40;2.10;;;;;;;16.79;100.00;155676.19;5032005;28;20506;-91
2022/10/16 08:38:20;;;;;;;3.93;2.00;;;;;;;16.86;100.00;155694.41;5032808;28;20543;-90
2022/10/16 08:40:47;;;;;;;2.33;2.00;;;;;;;16.95;100.00;155717.81;5029280;28;20447;-90
2022/10/16 08:43:29;;;;;;;5.13;2.10;;;;;;;17.03;100.00;155738.63;5025056;28;20523;-87
2022/10/16 08:46:08;;;;;;;3.30;2.47;;;;;;;17.09;100.00;155752.94;5030054;28;20483;-91
2022/10/16 08:48:42;;;;;;;4.30;2.17;;;;;;;17.18;100.00;155775.09;5033406;28;20559;-92
2022/10/16 08:51:13;;;;;;;2.70;1.97;;;;;;;17.18;100.00;155776.41;5008913;28;20875;-91
2022/10/16 08:53:44;;;;;;;3.17;1.73;;;;;;;17.16;100.00;155769.84;5031666;28;20447;-92
2022/10/16 08:56:10;;;;;;;3.07;2.00;;;;;;;17.18;100.00;155775.09;5031882;28;20459;-92
2022/10/16 08:58:37;;;;;;;4.73;1.97;;;;;;;17.17;100.00;155772.47;5030834;28;20448;-92
2022/10/16 09:01:22;;;;;;;2.07;1.87;;;;;;;17.13;100.00;155763.34;5031144;28;20436;-92
2022/10/16 09:04:23;;;;;;;3.80;2.40;;;;;;;17.13;100.00;155762.06;5015413;28;20495;-92
2022/10/16 09:06:53;;;;;;;2.73;1.80;;;;;;;17.14;100.00;155765.97;5007489;28;20457;-91
2022/10/16 09:10:03;;;;;;;4.53;2.30;;;;;;;17.22;100.00;155786.78;5046588;28;20958;-92
2022/10/16 09:12:34;;;;;;;3.47;2.40;;;;;;;17.33;100.00;155814.13;5052462;28;20437;-92
2022/10/16 09:15:08;;;;;;;3.10;2.53;;;;;;;17.45;100.00;155846.63;5052837;28;20431;-92
2022/10/16 09:17:45;;;;;;;4.10;2.30;;;;;;;17.55;100.00;155872.72;5051637;28;20420;-92
2022/10/16 09:20:25;;;;;;;2.50;2.00;;;;;;;17.72;100.00;155914.38;5035726;28;20447;-92
2022/10/16 09:22:54;;;;;;;6.30;1.83;;;;;;;17.87;100.00;155954.72;5033045;28;20507;-92
2022/10/16 09:25:22;;;;;;;3.80;1.83;;;;;;;17.99;100.00;155986.00;5033914;28;20498;-92
2022/10/16 09:27:50;;;;;;;2.00;1.57;;;;;;;18.06;100.00;156004.22;5036818;28;20427;-92
2022/10/16 09:30:18;;;;;;;4.03;2.20;;;;;;;18.07;100.00;156006.84;5035526;28;20475;-92
2022/10/16 09:32:47;;;;;;;2.70;1.77;;;;;;;18.13;100.00;156022.50;5035503;28;20471;-92
2022/10/16 09:35:15;;;;;;;3.20;1.60;;;;;;;18.17;100.00;156031.56;5035724;28;20443;-92
2022/10/16 09:37:43;;;;;;;2.80;1.87;;;;;;;18.15;100.00;156027.69;5035597;28;20428;-90
2022/10/16 09:40:24;;;;;;;3.90;1.70;;;;;;;18.31;100.00;156066.75;5035371;28;20444;-90
2022/10/16 09:42:53;;;;;;;3.93;1.97;;;;;;;18.40;100.00;156090.22;5035296;28;20479;-91
2022/10/16 09:45:22;;;;;;;8.50;2.47;;;;;;;18.49;100.00;156113.66;5035083;28;20452;-92
2022/10/16 09:47:49;;;;;;;2.77;1.80;;;;;;;18.47;100.00;156108.44;5035710;28;20458;-92
2022/10/16 09:50:23;;;;;;;2.40;1.60;;;;;;;18.54;100.00;156128.00;5036687;28;20471;-90
2022/10/16 09:52:50;;;;;;;5.07;2.10;;;;;;;18.68;100.00;156164.50;5036076;28;20443;-90
2022/10/16 09:55:19;;;;;;;2.60;1.70;;;;;;;18.85;98.65;156207.47;5034066;28;20456;-90
2022/10/16 09:57:52;;;;;;;2.50;2.30;;;;;;;19.03;100.00;156254.41;5034622;28;20454;-91
2022/10/16 10:00:20;;;;;;;1.90;1.50;;;;;;;19.03;97.91;156254.41;5035070;28;20950;-91
2022/10/16 10:02:47;;;;;;;2.70;2.10;;;;;;;19.01;97.34;156249.16;5034936;28;20438;-91
2022/10/16 10:05:22;;;;;;;1.60;1.30;;;;;;;19.03;98.46;156253.09;5034717;28;20874;-91
2022/10/16 10:07:55;;;;;;;4.33;1.80;;;;;;;19.02;98.47;156251.78;5036042;28;20475;-91
2022/10/16 10:10:25;;;;;;;4.47;1.83;;;;;;;19.01;97.37;156249.16;5034834;28;20471;-91
2022/10/16 10:12:52;;;;;;;3.40;1.70;;;;;;;19.17;93.70;156289.53;5034691;28;20999;-91
2022/10/16 10:15:21;;;;;;;2.23;2.00;;;;;;;19.21;93.85;156300.00;5034621;28;20462;-91
2022/10/16 10:17:50;;;;;;;1.80;1.47;;;;;;;19.20;95.40;156298.69;5034745;28;20842;-91
2022/10/16 10:20:24;;;;;;;2.90;1.93;;;;;;;19.22;96.36;156303.88;5034734;28;20448;-91
2022/10/16 10:22:50;;;;;;;1.93;1.63;;;;;;;19.32;94.93;156328.69;5034194;28;20416;-91
2022/10/16 10:25:25;;;;;;;3.60;1.90;;;;;;;19.34;94.38;156335.19;5034200;28;20484;-91
2022/10/16 10:28:17;;;;;;;2.00;1.63;;;;;;;19.38;95.31;156345.66;5035470;28;20526;-91
2022/10/16 10:30:49;;;;;;;2.80;1.60;;;;;;;19.47;93.06;156366.50;5025622;28;20578;-91
2022/10/16 10:33:24;;;;;;;3.73;1.77;;;;;;;19.50;92.29;156375.66;5033336;28;20452;-91
2022/10/16 10:35:56;;;;;;;3.30;1.83;;;;;;;19.53;92.38;156382.16;5033223;28;20852;-91
2022/10/16 10:38:38;;;;;;;2.43;1.27;;;;;;;19.54;91.81;156386.06;5033436;28;20439;-91
2022/10/16 10:41:22;;;;;;;6.70;2.00;;;;;;;19.59;91.41;156397.81;5034816;28;20470;-91
2022/10/16 10:43:57;;;;;;;2.57;1.50;;;;;;;19.66;91.27;156417.38;5033989;28;20467;-91
2022/10/16 10:46:32;;;;;;;5.97;1.60;;;;;;;19.71;91.36;156430.41;5033873;28;20551;-91
2022/10/16 10:49:08;;;;;;;5.70;1.80;;;;;;;19.73;90.47;156435.59;5035373;28;20529;-91
2022/10/16 10:51:43;;;;;;;3.83;1.60;;;;;;;19.85;88.72;156466.94;5031381;28;20475;-91
2022/10/16 10:54:16;;;;;;;3.87;1.80;;;;;;;19.86;89.65;156468.19;5031933;28;20505;-91
2022/10/16 10:56:48;;;;;;;4.83;1.53;;;;;;;19.82;87.75;156459.09;5034056;28;20578;-91
2022/10/16 10:59:40;;;;;;;2.67;1.63;;;;;;;19.83;88.48;156460.41;5033657;28;20459;-91
2022/10/16 11:02:14;;;;;;;2.70;1.63;;;;;;;19.82;88.39;156459.09;5034729;28;20416;-91
2022/10/16 11:04:53;;;;;;;5.00;1.60;;;;;;;19.91;86.32;156481.22;5029614;28;20452;-92
2022/10/16 11:07:22;;;;;;;3.30;1.77;;;;;;;19.94;86.90;156490.38;5033374;28;20458;-91
2022/10/16 11:09:54;;;;;;;4.77;1.73;;;;;;;19.94;89.77;156490.38;5009258;28;20457;-91
2022/10/16 11:12:37;;;;;;;2.80;2.10;;;;;;;19.89;84.57;156476.03;5033061;28;21016;-76
2022/10/16 11:15:11;;;;;;;1.83;1.50;;;;;;;19.85;84.66;156465.63;5031685;28;20459;-76
2022/10/16 11:17:41;;;;;;;2.50;1.73;;;;;;;19.89;84.18;156476.03;5018451;28;20836;-76
2022/10/16 11:20:15;;;;;;;2.37;1.60;;;;;;;19.99;81.67;156502.09;5013329;28;20437;-76
2022/10/16 11:22:47;;;;;;;2.10;1.70;;;;;;;19.94;86.28;156489.06;5029142;28;20451;-76
2022/10/16 11:25:24;;;;;;;1.80;1.40;;;;;;;19.84;84.02;156464.31;5029545;28;20448;-76
2022/10/16 11:27:56;;;;;;;1.90;1.60;;;;;;;19.88;84.64;156474.69;5031205;28;20444;-90